sensor_id;sensor_type;location;lat;lon;timestamp;pressure;altitude;pressure_sealevel;temperature;humidity
46836;BME280;32573;51.290;6.926;2023-03-22T00:00:10;99702.03;;;11.34;100.00
46836;BME280;32573;51.290;6.926;2023-03-22T00:02:41;99691.53;;;11.32;100.00
46836;BME280;32573;51.290;6.926;2023-03-22T00:05:09;99700.25;;;11.33;100.00
46836;BME280;32573;51.290;6.926;2023-03-22T00:07:38;99692.38;;;11.31;100.00
46836;BME280;32573;51.290;6.926;2023-03-22T00:10:08;99687.16;;;11.31;100.00
46836;BME280;32573;51.290;6.926;2023-03-22T00:12:36;99692.38;;;11.31;100.00
46836;BME280;32573;51.290;6.926;2023-03-22T00:15:06;99701.09;;;11.30;100.00
46836;BME280;32573;51.290;6.926;2023-03-22T00:17:36;99701.09;;;11.30;100.00
46836;BME280;32573;51.290;6.926;2023-03-22T00:20:06;99703.69;;;11.30;100.00
46836;BME280;32573;51.290;6.926;2023-03-22T00:22:35;99699.38;;;11.31;100.00
46836;BME280;32573;51.290;6.926;2023-03-22T00:25:04;99695.84;;;11.30;100.00
46836;BME280;32573;51.290;6.926;2023-03-22T00:27:33;99684.50;;;11.30;100.00
46836;BME280;32573;51.290;6.926;2023-03-22T00:30:02;99687.16;;;11.31;100.00
46836;BME280;32573;51.290;6.926;2023-03-22T00:32:33;99681.91;;;11.31;100.00
46836;BME280;32573;51.290;6.926;2023-03-22T00:35:04;99675.78;;;11.31;100.00
46836;BME280;32573;51.290;6.926;2023-03-22T00:37:34;99674.88;;;11.30;100.00
46836;BME280;32573;51.290;6.926;2023-03-22T00:40:06;99675.75;;;11.29;100.00
46836;BME280;32573;51.290;6.926;2023-03-22T00:42:36;99668.78;;;11.30;100.00
46836;BME280;32573;51.290;6.926;2023-03-22T00:45:07;99661.78;;;11.29;100.00
46836;BME280;32573;51.290;6.926;2023-03-22T00:47:38;99660.88;;;11.28;100.00
46836;BME280;32573;51.290;6.926;2023-03-22T00:50:09;99656.50;;;11.27;100.00
46836;BME280;32573;51.290;6.926;2023-03-22T00:52:37;99662.59;;;11.26;100.00
46836;BME280;32573;51.290;6.926;2023-03-22T00:55:06;99640.69;;;11.22;100.00
46836;BME280;32573;51.290;6.926;2023-03-22T00:57:35;99640.69;;;11.21;100.00
46836;BME280;32573;51.290;6.926;2023-03-22T01:00:05;99638.00;;;11.18;100.00
46836;BME280;32573;51.290;6.926;2023-03-22T01:02:37;99645.84;;;11.16;100.00
46836;BME280;32573;51.290;6.926;2023-03-22T01:05:10;99634.41;;;11.13;100.00
46836;BME280;32573;51.290;6.926;2023-03-22T01:07:42;99637.00;;;11.10;100.00
46836;BME280;32573;51.290;6.926;2023-03-22T01:10:11;99643.09;;;11.09;100.00
46836;BME280;32573;51.290;6.926;2023-03-22T01:12:40;99630.81;;;11.05;100.00
46836;BME280;32573;51.290;6.926;2023-03-22T01:15:09;99636.88;;;11.02;100.00
46836;BME280;32573;51.290;6.926;2023-03-22T01:17:38;99628.09;;;10.98;100.00
46836;BME280;32573;51.290;6.926;2023-03-22T01:20:08;99631.53;;;10.97;100.00
46836;BME280;32573;51.290;6.926;2023-03-22T01:22:39;99626.31;;;10.96;100.00
46836;BME280;32573;51.290;6.926;2023-03-22T01:25:08;99628.88;;;10.94;100.00
46836;BME280;32573;51.290;6.926;2023-03-22T01:27:37;99621.91;;;10.93;100.00
46836;BME280;32573;51.290;6.926;2023-03-22T01:30:07;99609.63;;;10.92;100.00
46836;BME280;32573;51.290;6.926;2023-03-22T01:32:36;99618.38;;;10.91;100.00
46836;BME280;32573;51.290;6.926;2023-03-22T01:35:05;99613.94;;;10.89;100.00
46836;BME280;32573;51.290;6.926;2023-03-22T01:37:34;99611.25;;;10.86;100.00
46836;BME280;32573;51.290;6.926;2023-03-22T01:40:06;99604.22;;;10.83;100.00
46836;BME280;32573;51.290;6.926;2023-03-22T01:42:35;99606.81;;;10.80;100.00
46836;BME280;32573;51.290;6.926;2023-03-22T01:45:37;99596.28;;;10.77;100.00
46836;BME280;32573;51.290;6.926;2023-03-22T01:48:25;99589.22;;;10.73;100.00
46836;BME280;32573;51.290;6.926;2023-03-22T01:51:03;99595.28;;;10.69;100.00
46836;BME280;32573;51.290;6.926;2023-03-22T01:53:40;99587.34;;;10.66;100.00
46836;BME280;32573;51.290;6.926;2023-03-22T01:56:11;99589.91;;;10.63;100.00
46836;BME280;32573;51.290;6.926;2023-03-22T01:58:41;99579.41;;;10.60;100.00
46836;BME280;32573;51.290;6.926;2023-03-22T02:01:11;99574.94;;;10.55;100.00
46836;BME280;32573;51.290;6.926;2023-03-22T02:03:51;99567.06;;;10.52;100.00
46836;BME280;32573;51.290;6.926;2023-03-22T02:06:22;99566.13;;;10.49;100.00
46836;BME280;32573;51.290;6.926;2023-03-22T02:08:58;99570.41;;;10.45;100.00
46836;BME280;32573;51.290;6.926;2023-03-22T02:11:32;99572.09;;;10.42;100.00
46836;BME280;32573;51.290;6.926;2023-03-22T02:14:13;99572.00;;;10.37;100.00
46836;BME280;32573;51.290;6.926;2023-03-22T02:17:16;99559.75;;;10.34;100.00
46836;BME280;32573;51.290;6.926;2023-03-22T02:23:22;99552.66;;;10.29;100.00
46836;BME280;32573;51.290;6.926;2023-03-22T02:26:26;99551.72;;;10.27;100.00
46836;BME280;32573;51.290;6.926;2023-03-22T02:29:06;99549.06;;;10.24;100.00
46836;BME280;32573;51.290;6.926;2023-03-22T02:31:53;99545.53;;;10.22;100.00
46836;BME280;32573;51.290;6.926;2023-03-22T02:37:53;99537.63;;;10.19;100.00
46836;BME280;32573;51.290;6.926;2023-03-22T02:40:32;99533.22;;;10.18;100.00
46836;BME280;32573;51.290;6.926;2023-03-22T02:43:09;99533.22;;;10.18;100.00
46836;BME280;32573;51.290;6.926;2023-03-22T02:45:44;99524.47;;;10.15;100.00
46836;BME280;32573;51.290;6.926;2023-03-22T02:48:16;99518.34;;;10.13;100.00
46836;BME280;32573;51.290;6.926;2023-03-22T02:50:52;99518.31;;;10.12;100.00
46836;BME280;32573;51.290;6.926;2023-03-22T02:53:24;99518.28;;;10.10;100.00
46836;BME280;32573;51.290;6.926;2023-03-22T02:56:00;99517.38;;;10.08;100.00
46836;BME280;32573;51.290;6.926;2023-03-22T02:58:33;99520.84;;;10.07;100.00
46836;BME280;32573;51.290;6.926;2023-03-22T03:01:05;99511.19;;;10.05;100.00
46836;BME280;32573;51.290;6.926;2023-03-22T03:03:36;99511.19;;;10.05;100.00
46836;BME280;32573;51.290;6.926;2023-03-22T03:06:08;99512.03;;;10.02;100.00
46836;BME280;32573;51.290;6.926;2023-03-22T03:08:39;99519.00;;;10.02;100.00
46836;BME280;32573;51.290;6.926;2023-03-22T03:11:10;99517.19;;;9.99;100.00
46836;BME280;32573;51.290;6.926;2023-03-22T03:13:38;99504.97;;;9.98;100.00
46836;BME280;32573;51.290;6.926;2023-03-22T03:16:11;99510.19;;;9.98;100.00
46836;BME280;32573;51.290;6.926;2023-03-22T03:18:48;99509.31;;;9.96;100.00
46836;BME280;32573;51.290;6.926;2023-03-22T03:21:25;99503.16;;;9.94;100.00
46836;BME280;32573;51.290;6.926;2023-03-22T03:24:03;99516.19;;;9.92;100.00
46836;BME280;32573;51.290;6.926;2023-03-22T03:26:38;99506.59;;;9.91;100.00
46836;BME280;32573;51.290;6.926;2023-03-22T03:29:14;99502.19;;;9.89;100.00
46836;BME280;32573;51.290;6.926;2023-03-22T03:31:49;99505.63;;;9.88;100.00
46836;BME280;32573;51.290;6.926;2023-03-22T03:34:23;99502.16;;;9.87;100.00
46836;BME280;32573;51.290;6.926;2023-03-22T03:36:56;99502.09;;;9.86;100.00
46836;BME280;32573;51.290;6.926;2023-03-22T03:39:29;99504.75;;;9.87;100.00
46836;BME280;32573;51.290;6.926;2023-03-22T03:42:02;99495.13;;;9.85;100.00
46836;BME280;32573;51.290;6.926;2023-03-22T03:44:34;99483.75;;;9.83;100.00
46836;BME280;32573;51.290;6.926;2023-03-22T03:47:04;99488.97;;;9.83;100.00
46836;BME280;32573;51.290;6.926;2023-03-22T03:49:34;99487.22;;;9.82;100.00
46836;BME280;32573;51.290;6.926;2023-03-22T03:52:04;99483.69;;;9.80;100.00
46836;BME280;32573;51.290;6.926;2023-03-22T03:54:33;99488.88;;;9.78;100.00
46836;BME280;32573;51.290;6.926;2023-03-22T03:57:05;99487.13;;;9.77;100.00
46836;BME280;32573;51.290;6.926;2023-03-22T03:59:36;99488.00;;;9.76;100.00
46836;BME280;32573;51.290;6.926;2023-03-22T04:02:12;99486.25;;;9.77;100.00
46836;BME280;32573;51.290;6.926;2023-03-22T04:04:41;99492.31;;;9.76;100.00
46836;BME280;32573;51.290;6.926;2023-03-22T04:07:09;99487.97;;;9.75;100.00
46836;BME280;32573;51.290;6.926;2023-03-22T04:09:38;99495.81;;;9.75;100.00
46836;BME280;32573;51.290;6.926;2023-03-22T04:12:35;99497.50;;;9.72;100.00
46836;BME280;32573;51.290;6.926;2023-03-22T04:15:12;99499.22;;;9.72;100.00
46836;BME280;32573;51.290;6.926;2023-03-22T04:17:43;99498.31;;;9.70;100.00
46836;BME280;32573;51.290;6.926;2023-03-22T04:20:14;99499.19;;;9.69;100.00
46836;BME280;32573;51.290;6.926;2023-03-22T04:22:42;99493.91;;;9.67;100.00
46836;BME280;32573;51.290;6.926;2023-03-22T04:25:14;99498.25;;;9.67;100.00
46836;BME280;32573;51.290;6.926;2023-03-22T04:27:57;99488.63;;;9.64;100.00
46836;BME280;32573;51.290;6.926;2023-03-22T04:30:26;99497.34;;;9.65;100.00
46836;BME280;32573;51.290;6.926;2023-03-22T04:32:56;99497.28;;;9.63;100.00
46836;BME280;32573;51.290;6.926;2023-03-22T04:35:38;99492.06;;;9.62;100.00
46836;BME280;32573;51.290;6.926;2023-03-22T04:38:07;99492.06;;;9.62;100.00
46836;BME280;32573;51.290;6.926;2023-03-22T04:40:36;99482.44;;;9.61;100.00
46836;BME280;32573;51.290;6.926;2023-03-22T04:43:11;99485.03;;;9.59;100.00
46836;BME280;32573;51.290;6.926;2023-03-22T04:45:55;99477.16;;;9.58;100.00
46836;BME280;32573;51.290;6.926;2023-03-22T04:48:30;99471.06;;;9.57;100.00
46836;BME280;32573;51.290;6.926;2023-03-22T04:51:01;99472.75;;;9.55;100.00
46836;BME280;32573;51.290;6.926;2023-03-22T04:53:36;99467.50;;;9.54;100.00
46836;BME280;32573;51.290;6.926;2023-03-22T04:56:09;99470.13;;;9.54;100.00
46836;BME280;32573;51.290;6.926;2023-03-22T04:58:41;99473.56;;;9.53;100.00
46836;BME280;32573;51.290;6.926;2023-03-22T05:01:11;99477.91;;;9.52;100.00
46836;BME280;32573;51.290;6.926;2023-03-22T05:03:42;99477.88;;;9.49;100.00
46836;BME280;32573;51.290;6.926;2023-03-22T05:06:16;99483.97;;;9.49;100.00
46836;BME280;32573;51.290;6.926;2023-03-22T05:08:53;99483.09;;;9.49;100.00
46836;BME280;32573;51.290;6.926;2023-03-22T05:11:22;99473.47;;;9.46;100.00
46836;BME280;32573;51.290;6.926;2023-03-22T05:14:30;99483.09;;;9.49;100.00
46836;BME280;32573;51.290;6.926;2023-03-22T05:16:59;99478.75;;;9.49;100.00
46836;BME280;32573;51.290;6.926;2023-03-22T05:19:28;99470.03;;;9.50;100.00
46836;BME280;32573;51.290;6.926;2023-03-22T05:21:56;99473.56;;;9.53;100.00
46836;BME280;32573;51.290;6.926;2023-03-22T05:24:48;99478.84;;;9.54;100.00
46836;BME280;32573;51.290;6.926;2023-03-22T05:27:22;99482.31;;;9.55;100.00
46836;BME280;32573;51.290;6.926;2023-03-22T05:30:17;99481.50;;;9.57;100.00
46836;BME280;32573;51.290;6.926;2023-03-22T05:32:56;99472.81;;;9.58;100.00
46836;BME280;32573;51.290;6.926;2023-03-22T05:35:26;99476.34;;;9.60;100.00
46836;BME280;32573;51.290;6.926;2023-03-22T05:37:56;99485.97;;;9.61;100.00
46836;BME280;32573;51.290;6.926;2023-03-22T05:40:27;99479.91;;;9.64;100.00
46836;BME280;32573;51.290;6.926;2023-03-22T05:42:56;99475.56;;;9.66;100.00
46836;BME280;32573;51.290;6.926;2023-03-22T05:45:27;99474.78;;;9.68;100.00
46836;BME280;32573;51.290;6.926;2023-03-22T05:48:16;99474.84;;;9.71;100.00
46836;BME280;32573;51.290;6.926;2023-03-22T05:50:45;99474.03;;;9.76;100.00
46836;BME280;32573;51.290;6.926;2023-03-22T05:53:13;99469.72;;;9.78;100.00
46836;BME280;32573;51.290;6.926;2023-03-22T05:55:48;99468.94;;;9.82;100.00
46836;BME280;32573;51.290;6.926;2023-03-22T05:58:16;99470.72;;;9.84;100.00
46836;BME280;32573;51.290;6.926;2023-03-22T06:00:48;99469.03;;;9.86;100.00
46836;BME280;32573;51.290;6.926;2023-03-22T06:03:20;99467.34;;;9.90;100.00
46836;BME280;32573;51.290;6.926;2023-03-22T06:05:54;99464.78;;;9.93;100.00
46836;BME280;32573;51.290;6.926;2023-03-22T06:08:38;99465.69;;;9.95;100.00
46836;BME280;32573;51.290;6.926;2023-03-22T06:11:06;99466.66;;;10.00;100.00
46836;BME280;32573;51.290;6.926;2023-03-22T06:13:36;99461.47;;;10.03;100.00
46836;BME280;32573;51.290;6.926;2023-03-22T06:16:07;99464.13;;;10.05;100.00
46836;BME280;32573;51.290;6.926;2023-03-22T06:18:35;99474.69;;;10.09;100.00
46836;BME280;32573;51.290;6.926;2023-03-22T06:21:09;99479.09;;;10.12;100.00
46836;BME280;32573;51.290;6.926;2023-03-22T06:23:37;99478.25;;;10.14;100.00
46836;BME280;32573;51.290;6.926;2023-03-22T06:26:07;99476.56;;;10.17;100.00
46836;BME280;32573;51.290;6.926;2023-03-22T06:28:37;99482.72;;;10.19;100.00
46836;BME280;32573;51.290;6.926;2023-03-22T06:31:08;99489.69;;;10.20;100.00
46836;BME280;32573;51.290;6.926;2023-03-22T06:33:46;99493.22;;;10.22;100.00
46836;BME280;32573;51.290;6.926;2023-03-22T06:36:24;99489.75;;;10.23;100.00
46836;BME280;32573;51.290;6.926;2023-03-22T06:39:13;99482.81;;;10.25;100.00
46836;BME280;32573;51.290;6.926;2023-03-22T06:41:44;99472.34;;;10.25;100.00
46836;BME280;32573;51.290;6.926;2023-03-22T06:44:13;99473.25;;;10.27;100.00
46836;BME280;32573;51.290;6.926;2023-03-22T06:47:03;99470.72;;;10.28;100.00
46836;BME280;32573;51.290;6.926;2023-03-22T06:49:52;99474.22;;;10.30;100.00
46836;BME280;32573;51.290;6.926;2023-03-22T06:52:25;99463.78;;;10.32;100.00
46836;BME280;32573;51.290;6.926;2023-03-22T06:54:54;99463.84;;;10.35;100.00
46836;BME280;32573;51.290;6.926;2023-03-22T06:57:23;99467.38;;;10.37;100.00
46836;BME280;32573;51.290;6.926;2023-03-22T06:59:52;99463.06;;;10.41;100.00
46836;BME280;32573;51.290;6.926;2023-03-22T07:02:22;99462.22;;;10.43;100.00
46836;BME280;32573;51.290;6.926;2023-03-22T07:05:17;99462.28;;;10.46;100.00
46836;BME280;32573;51.290;6.926;2023-03-22T07:07:45;99450.13;;;10.48;100.00
46836;BME280;32573;51.290;6.926;2023-03-22T07:10:14;99455.41;;;10.51;100.00
46836;BME280;32573;51.290;6.926;2023-03-22T07:12:42;99450.22;;;10.54;100.00
46836;BME280;32573;51.290;6.926;2023-03-22T07:15:14;99454.63;;;10.57;100.00
46836;BME280;32573;51.290;6.926;2023-03-22T07:18:05;99444.22;;;10.62;100.00
46836;BME280;32573;51.290;6.926;2023-03-22T07:20:34;99439.03;;;10.65;100.00
46836;BME280;32573;51.290;6.926;2023-03-22T07:23:07;99438.25;;;10.69;100.00
46836;BME280;32573;51.290;6.926;2023-03-22T07:25:44;99433.09;;;10.75;100.00
46836;BME280;32573;51.290;6.926;2023-03-22T07:28:27;99443.66;;;10.81;100.00
46836;BME280;32573;51.290;6.926;2023-03-22T07:31:00;99454.22;;;10.87;100.00
46836;BME280;32573;51.290;6.926;2023-03-22T07:33:36;99436.00;;;10.93;100.00
46836;BME280;32573;51.290;6.926;2023-03-22T07:36:06;99442.19;;;11.00;100.00
46836;BME280;32573;51.290;6.926;2023-03-22T07:38:36;99439.66;;;11.06;100.00
46836;BME280;32573;51.290;6.926;2023-03-22T07:41:08;99436.28;;;11.13;100.00
46836;BME280;32573;51.290;6.926;2023-03-22T07:43:53;99434.59;;;11.20;100.00
46836;BME280;32573;51.290;6.926;2023-03-22T07:46:45;99433.81;;;11.27;100.00
46836;BME280;32573;51.290;6.926;2023-03-22T07:49:22;99431.28;;;11.33;100.00
46836;BME280;32573;51.290;6.926;2023-03-22T07:52:04;99433.06;;;11.37;100.00
46836;BME280;32573;51.290;6.926;2023-03-22T07:54:34;99432.25;;;11.41;100.00
46836;BME280;32573;51.290;6.926;2023-03-22T07:57:05;99435.78;;;11.43;100.00
46836;BME280;32573;51.290;6.926;2023-03-22T07:59:39;99437.56;;;11.48;100.00
46836;BME280;32573;51.290;6.926;2023-03-22T08:02:09;99444.59;;;11.49;100.00
46836;BME280;32573;51.290;6.926;2023-03-22T08:04:46;99434.13;;;11.52;100.00
46836;BME280;32573;51.290;6.926;2023-03-22T08:07:28;99447.28;;;11.53;100.00
46836;BME280;32573;51.290;6.926;2023-03-22T08:09:58;99443.81;;;11.56;100.00
46836;BME280;32573;51.290;6.926;2023-03-22T08:12:26;99442.97;;;11.58;100.00
46836;BME280;32573;51.290;6.926;2023-03-22T08:15:05;99445.59;;;11.61;100.00
46836;BME280;32573;51.290;6.926;2023-03-22T08:17:34;99454.38;;;11.65;100.00
46836;BME280;32573;51.290;6.926;2023-03-22T08:20:08;99449.16;;;11.68;100.00
46836;BME280;32573;51.290;6.926;2023-03-22T08:22:45;99450.97;;;11.71;100.00
46836;BME280;32573;51.290;6.926;2023-03-22T08:25:31;99471.09;;;11.73;100.00
46836;BME280;32573;51.290;6.926;2023-03-22T08:28:06;99452.75;;;11.75;100.00
46836;BME280;32573;51.290;6.926;2023-03-22T08:30:36;99455.41;;;11.76;100.00
46836;BME280;32573;51.290;6.926;2023-03-22T08:33:05;99458.91;;;11.78;100.00
46836;BME280;32573;51.290;6.926;2023-03-22T08:35:35;99455.44;;;11.79;100.00
46836;BME280;32573;51.290;6.926;2023-03-22T08:38:04;99464.19;;;11.81;100.00
46836;BME280;32573;51.290;6.926;2023-03-22T08:40:40;99458.94;;;11.83;100.00
46836;BME280;32573;51.290;6.926;2023-03-22T08:43:09;99446.72;;;11.85;100.00
46836;BME280;32573;51.290;6.926;2023-03-22T08:45:37;99459.00;;;11.86;100.00
46836;BME280;32573;51.290;6.926;2023-03-22T08:48:14;99459.84;;;11.85;100.00
46836;BME280;32573;51.290;6.926;2023-03-22T08:50:59;99462.53;;;11.86;100.00
46836;BME280;32573;51.290;6.926;2023-03-22T08:53:38;99467.81;;;11.90;100.00
46836;BME280;32573;51.290;6.926;2023-03-22T08:56:29;99451.22;;;11.91;100.00
46836;BME280;32573;51.290;6.926;2023-03-22T08:59:10;99445.09;;;11.92;100.00
46836;BME280;32573;51.290;6.926;2023-03-22T09:01:51;99448.63;;;11.94;100.00
46836;BME280;32573;51.290;6.926;2023-03-22T09:04:22;99436.41;;;11.97;100.00
46836;BME280;32573;51.290;6.926;2023-03-22T09:06:51;99451.34;;;12.01;100.00
46836;BME280;32573;51.290;6.926;2023-03-22T09:09:20;99447.84;;;12.04;100.00
46836;BME280;32573;51.290;6.926;2023-03-22T09:11:51;99448.78;;;12.09;100.00
46836;BME280;32573;51.290;6.926;2023-03-22T09:14:20;99437.47;;;12.13;100.00
46836;BME280;32573;51.290;6.926;2023-03-22T09:16:49;99446.19;;;12.15;100.00
46836;BME280;32573;51.290;6.926;2023-03-22T09:19:18;99439.22;;;12.17;100.00
46836;BME280;32573;51.290;6.926;2023-03-22T09:21:47;99438.41;;;12.21;100.00
46836;BME280;32573;51.290;6.926;2023-03-22T09:24:27;99448.94;;;12.24;100.00
46836;BME280;32573;51.290;6.926;2023-03-22T09:26:59;99435.81;;;12.24;100.00
46836;BME280;32573;51.290;6.926;2023-03-22T09:29:28;99447.19;;;12.26;100.00
46836;BME280;32573;51.290;6.926;2023-03-22T09:31:58;99441.09;;;12.29;100.00
46836;BME280;32573;51.290;6.926;2023-03-22T09:34:30;99443.78;;;12.37;100.00
46836;BME280;32573;51.290;6.926;2023-03-22T09:36:59;99439.50;;;12.48;100.00
46836;BME280;32573;51.290;6.926;2023-03-22T09:39:41;99431.69;;;12.54;100.00
46836;BME280;32573;51.290;6.926;2023-03-22T09:42:24;99430.84;;;12.58;100.00
46836;BME280;32573;51.290;6.926;2023-03-22T09:44:58;99438.75;;;12.61;100.00
46836;BME280;32573;51.290;6.926;2023-03-22T09:47:33;99448.41;;;12.64;100.00
46836;BME280;32573;51.290;6.926;2023-03-22T09:50:14;99436.13;;;12.61;100.00
46836;BME280;32573;51.290;6.926;2023-03-22T09:52:43;99434.34;;;12.59;100.00
46836;BME280;32573;51.290;6.926;2023-03-22T09:55:18;99441.34;;;12.58;100.00
46836;BME280;32573;51.290;6.926;2023-03-22T09:57:53;99436.09;;;12.58;100.00
46836;BME280;32573;51.290;6.926;2023-03-22T10:00:32;99438.72;;;12.58;100.00
46836;BME280;32573;51.290;6.926;2023-03-22T10:03:15;99429.09;;;12.59;100.00
46836;BME280;32573;51.290;6.926;2023-03-22T10:05:49;99436.09;;;12.58;100.00
46836;BME280;32573;51.290;6.926;2023-03-22T10:08:32;99424.75;;;12.61;100.00
46836;BME280;32573;51.290;6.926;2023-03-22T10:11:13;99423.91;;;12.66;100.00
46836;BME280;32573;51.290;6.926;2023-03-22T10:13:52;99438.81;;;12.72;100.00
46836;BME280;32573;51.290;6.926;2023-03-22T10:16:26;99420.47;;;12.73;100.00
46836;BME280;32573;51.290;6.926;2023-03-22T10:19:02;99424.91;;;12.81;100.00
46836;BME280;32573;51.290;6.926;2023-03-22T10:21:32;99414.41;;;12.87;100.00
46836;BME280;32573;51.290;6.926;2023-03-22T10:24:06;99408.31;;;12.92;100.00
46836;BME280;32573;51.290;6.926;2023-03-22T10:26:44;99410.97;;;12.97;100.00
46836;BME280;32573;51.290;6.926;2023-03-22T10:29:18;99404.88;;;13.03;100.00
46836;BME280;32573;51.290;6.926;2023-03-22T10:31:49;99415.41;;;13.09;100.00
46836;BME280;32573;51.290;6.926;2023-03-22T10:34:21;99418.94;;;13.14;100.00
46836;BME280;32573;51.290;6.926;2023-03-22T10:36:51;99413.69;;;13.14;100.00
46836;BME280;32573;51.290;6.926;2023-03-22T10:39:27;99418.97;;;13.17;100.00
46836;BME280;32573;51.290;6.926;2023-03-22T10:42:00;99411.09;;;13.22;100.00
46836;BME280;32573;51.290;6.926;2023-03-22T10:44:32;99420.75;;;13.24;100.00
46836;BME280;32573;51.290;6.926;2023-03-22T10:47:05;99415.53;;;13.27;100.00
46836;BME280;32573;51.290;6.926;2023-03-22T10:49:39;99414.72;;;13.33;100.00
46836;BME280;32573;51.290;6.926;2023-03-22T10:52:19;99414.69;;;13.34;100.00
46836;BME280;32573;51.290;6.926;2023-03-22T10:54:50;99412.97;;;13.36;100.00
46836;BME280;32573;51.290;6.926;2023-03-22T10:57:20;99419.09;;;13.35;100.00
46836;BME280;32573;51.290;6.926;2023-03-22T10:59:49;99419.94;;;13.34;100.00
46836;BME280;32573;51.290;6.926;2023-03-22T11:02:20;99428.72;;;13.32;100.00
46836;BME280;32573;51.290;6.926;2023-03-22T11:04:51;99421.72;;;13.34;100.00
46836;BME280;32573;51.290;6.926;2023-03-22T11:07:30;99416.47;;;13.35;100.00
46836;BME280;32573;51.290;6.926;2023-03-22T11:10:20;99411.19;;;13.37;100.00
46836;BME280;32573;51.290;6.926;2023-03-22T11:12:52;99416.47;;;13.38;100.00
46836;BME280;32573;51.290;6.926;2023-03-22T11:15:28;99412.97;;;13.38;100.00
46836;BME280;32573;51.290;6.926;2023-03-22T11:17:59;99411.19;;;13.37;100.00
46836;BME280;32573;51.290;6.926;2023-03-22T11:20:28;99412.09;;;13.33;100.00
46836;BME280;32573;51.290;6.926;2023-03-22T11:22:59;99409.44;;;13.31;100.00
46836;BME280;32573;51.290;6.926;2023-03-22T11:25:30;99403.31;;;13.31;100.00
46836;BME280;32573;51.290;6.926;2023-03-22T11:28:08;99417.31;;;13.31;100.00
46836;BME280;32573;51.290;6.926;2023-03-22T11:30:58;99413.81;;;13.31;100.00
46836;BME280;32573;51.290;6.926;2023-03-22T11:33:27;99415.56;;;13.29;100.00
46836;BME280;32573;51.290;6.926;2023-03-22T11:35:57;99411.13;;;13.23;100.00
46836;BME280;32573;51.290;6.926;2023-03-22T11:38:28;99414.59;;;13.22;100.00
46836;BME280;32573;51.290;6.926;2023-03-22T11:40:59;99407.59;;;13.20;100.00
46836;BME280;32573;51.290;6.926;2023-03-22T11:43:33;99407.56;;;13.15;100.00
46836;BME280;32573;51.290;6.926;2023-03-22T11:46:03;99402.31;;;13.10;100.00
46836;BME280;32573;51.290;6.926;2023-03-22T11:48:32;99406.66;;;13.10;100.00
46836;BME280;32573;51.290;6.926;2023-03-22T11:51:07;99402.31;;;13.10;100.00
46836;BME280;32573;51.290;6.926;2023-03-22T11:53:38;99421.56;;;13.12;100.00
46836;BME280;32573;51.290;6.926;2023-03-22T11:56:09;99410.19;;;13.10;100.00
46836;BME280;32573;51.290;6.926;2023-03-22T11:58:54;99394.44;;;13.13;100.00
46836;BME280;32573;51.290;6.926;2023-03-22T12:01:38;99390.06;;;13.17;100.00
46836;BME280;32573;51.290;6.926;2023-03-22T12:04:12;99395.34;;;13.22;100.00
46836;BME280;32573;51.290;6.926;2023-03-22T12:06:42;99372.56;;;13.24;100.00
46836;BME280;32573;51.290;6.926;2023-03-22T12:09:20;99390.97;;;13.25;100.00
46836;BME280;32573;51.290;6.926;2023-03-22T12:11:54;99390.97;;;13.25;100.00
46836;BME280;32573;51.290;6.926;2023-03-22T12:14:27;99386.59;;;13.24;100.00
46836;BME280;32573;51.290;6.926;2023-03-22T12:16:59;99385.72;;;13.24;100.00
46836;BME280;32573;51.290;6.926;2023-03-22T12:19:40;99371.69;;;13.25;100.00
46836;BME280;32573;51.290;6.926;2023-03-22T12:22:12;99378.75;;;13.27;100.00
46836;BME280;32573;51.290;6.926;2023-03-22T12:24:43;99373.47;;;13.26;100.00
46836;BME280;32573;51.290;6.926;2023-03-22T12:27:16;99366.47;;;13.26;100.00
46836;BME280;32573;51.290;6.926;2023-03-22T12:29:52;99370.88;;;13.29;100.00
46836;BME280;32573;51.290;6.926;2023-03-22T12:32:25;99377.88;;;13.30;100.00
46836;BME280;32573;51.290;6.926;2023-03-22T12:34:55;99384.91;;;13.31;100.00
46836;BME280;32573;51.290;6.926;2023-03-22T12:37:45;99373.50;;;13.29;100.00
46836;BME280;32573;51.290;6.926;2023-03-22T12:40:20;99378.72;;;13.26;100.00
46836;BME280;32573;51.290;6.926;2023-03-22T12:42:57;99386.59;;;13.26;100.00
46836;BME280;32573;51.290;6.926;2023-03-22T12:45:32;99379.56;;;13.22;100.00
46836;BME280;32573;51.290;6.926;2023-03-22T12:48:08;99384.81;;;13.22;100.00
46836;BME280;32573;51.290;6.926;2023-03-22T12:50:42;99380.44;;;13.19;100.00
46836;BME280;32573;51.290;6.926;2023-03-22T12:53:14;99383.94;;;13.16;100.00
46836;BME280;32573;51.290;6.926;2023-03-22T12:55:44;99383.91;;;13.15;100.00
46836;BME280;32573;51.290;6.926;2023-03-22T12:58:17;99383.06;;;13.13;100.00
46836;BME280;32573;51.290;6.926;2023-03-22T13:00:51;99387.41;;;13.09;100.00
46836;BME280;32573;51.290;6.926;2023-03-22T13:03:24;99388.28;;;13.08;100.00
46836;BME280;32573;51.290;6.926;2023-03-22T13:06:01;99393.50;;;13.05;100.00
46836;BME280;32573;51.290;6.926;2023-03-22T13:11:32;99384.72;;;13.00;100.00
46836;BME280;32573;51.290;6.926;2023-03-22T13:14:00;99386.47;;;12.98;100.00
46836;BME280;32573;51.290;6.926;2023-03-22T13:16:48;99389.09;;;13.00;100.00
46836;BME280;32573;51.290;6.926;2023-03-22T13:19:26;99384.69;;;12.97;100.00
46836;BME280;32573;51.290;6.926;2023-03-22T13:22:14;99378.59;;;12.98;100.00
46836;BME280;32573;51.290;6.926;2023-03-22T13:25:13;99382.06;;;12.97;100.00
46836;BME280;32573;51.290;6.926;2023-03-22T13:27:56;99378.56;;;12.97;100.00
46836;BME280;32573;51.290;6.926;2023-03-22T13:30:28;99377.69;;;12.98;100.00
46836;BME280;32573;51.290;6.926;2023-03-22T13:33:11;99373.31;;;12.97;100.00
46836;BME280;32573;51.290;6.926;2023-03-22T13:35:43;99375.06;;;12.98;100.00
46836;BME280;32573;51.290;6.926;2023-03-22T13:38:20;99375.97;;;12.98;100.00